Dorena, Oregon
Current Conditions -  °F | °C
As of 2:54 AM on Friday 28 Nov 2014 (Local Time) from KEUG Reporting Station
Light Rain Light Rain  
Wind Chill: 53°   Ceiling: 5500
Heat Index: 53°   Visibility: 10mi
Dew Point: 48°   Wind: 14mph
Humidity: 83%   Direction: 180°S
Pressure: 29.79"   Gusts: NA
Location:  43.72°N, 122.86°W
Report Text: KEUG 281054Z AUTO 18012KT 10SM -RA SCT038 BKN055 OVC075 12/09 A2979 RMK AO2 RAB19 SLP087 P0001 T01170089
Loading
Personal Weather Stations






























Interactive Weather Map New forecast layout! Learn more

10-Day Weather Forecast

Advertisements
Track Severe Weather on mobile